Time;durP1;ratioP1;P1;durP2;ratioP2;P2;SDS_P1;SDS_P2;PMS_P1;PMS_P2;Temp;Humidity;BMP_temperature;BMP_pressure;BME280_temperature;BME280_humidity;BME280_pressure;Samples;Min_cycle;Max_cycle;Signal;HPM_P1;HPM_P2
2021/11/15 00:01:41;;;;;;;24.03;10.57;;;5.90;99.90;;;;;;6189490;23;20159;-81
2021/11/15 00:04:07;;;;;;;25.37;9.93;;;5.90;99.90;;;;;;6163068;23;20151;-81
2021/11/15 00:06:33;;;;;;;23.37;10.57;;;5.90;99.90;;;;;;6189558;23;20238;-79
2021/11/15 00:08:58;;;;;;;22.37;10.33;;;5.90;99.90;;;;;;6162049;23;20541;-82
2021/11/15 00:11:26;;;;;;;25.80;10.73;;;5.80;99.90;;;;;;6188439;23;20229;-81
2021/11/15 00:13:51;;;;;;;21.43;9.30;;;5.80;99.90;;;;;;6190069;23;20598;-79
2021/11/15 00:16:17;;;;;;;20.60;10.30;;;5.80;99.90;;;;;;6189650;23;20235;-80
2021/11/15 00:18:42;;;;;;;20.33;9.70;;;5.90;99.90;;;;;;6190269;23;20155;-81
2021/11/15 00:21:08;;;;;;;20.77;9.60;;;5.90;99.90;;;;;;6163143;23;20482;-82
2021/11/15 00:23:34;;;;;;;20.10;9.00;;;5.80;99.90;;;;;;6163116;23;20182;-78
2021/11/15 00:25:59;;;;;;;24.27;10.20;;;5.80;99.90;;;;;;6189478;23;20159;-79
2021/11/15 00:28:25;;;;;;;20.70;9.67;;;5.80;99.90;;;;;;6188688;23;20209;-80
2021/11/15 00:30:51;;;;;;;24.70;11.23;;;5.80;99.90;;;;;;6162105;23;20159;-79
2021/11/15 00:33:16;;;;;;;25.63;12.33;;;5.80;99.90;;;;;;6189625;23;20689;-80
2021/11/15 00:35:42;;;;;;;37.73;14.70;;;5.70;99.90;;;;;;6162045;23;20824;-79
2021/11/15 00:38:08;;;;;;;34.00;14.33;;;5.70;99.90;;;;;;6189389;23;20181;-80
2021/11/15 00:40:34;;;;;;;40.33;16.67;;;5.70;99.90;;;;;;6189761;23;20250;-79
2021/11/15 00:42:59;;;;;;;44.63;16.00;;;5.80;99.90;;;;;;6163143;23;20237;-78
2021/11/15 00:45:25;;;;;;;38.63;15.97;;;5.80;99.90;;;;;;6163688;23;20167;-80
2021/11/15 00:47:51;;;;;;;37.97;15.60;;;5.80;99.90;;;;;;6162957;23;20186;-80
2021/11/15 00:50:20;;;;;;;39.80;16.23;;;5.80;99.90;;;;;;6163444;23;20175;-79
2021/11/15 00:52:46;;;;;;;37.80;17.43;;;5.80;99.90;;;;;;6163295;23;20603;-80
2021/11/15 00:55:12;;;;;;;42.23;16.60;;;5.80;99.90;;;;;;6190211;23;20610;-79
2021/11/15 00:57:38;;;;;;;43.87;17.40;;;5.80;99.90;;;;;;6189813;23;20162;-80
2021/11/15 01:00:08;;;;;;;41.57;16.80;;;5.80;99.90;;;;;;6163493;23;20182;-80
2021/11/15 01:02:34;;;;;;;40.77;16.60;;;5.80;99.90;;;;;;6163390;23;20163;-80
2021/11/15 01:05:00;;;;;;;46.77;17.93;;;5.80;99.90;;;;;;6163002;23;20178;-79
2021/11/15 01:07:25;;;;;;;43.77;16.90;;;5.80;99.90;;;;;;6162863;23;20162;-77
2021/11/15 01:09:51;;;;;;;43.03;17.70;;;5.80;99.90;;;;;;6163369;23;20206;-80
2021/11/15 01:12:16;;;;;;;50.57;18.67;;;5.80;99.90;;;;;;6174138;23;20158;-79
2021/11/15 01:14:42;;;;;;;42.30;17.80;;;5.80;99.90;;;;;;6166388;23;20173;-80
2021/11/15 01:17:08;;;;;;;44.80;17.83;;;5.70;99.90;;;;;;6161104;23;20161;-79
2021/11/15 01:19:33;;;;;;;47.83;18.27;;;5.80;99.90;;;;;;6161239;23;20178;-80
2021/11/15 01:21:59;;;;;;;48.80;18.23;;;5.80;99.90;;;;;;6188831;23;20182;-81
2021/11/15 01:24:25;;;;;;;46.43;18.53;;;5.80;99.90;;;;;;6188285;23;20147;-80
2021/11/15 01:26:50;;;;;;;51.43;19.47;;;5.80;99.90;;;;;;6188129;23;20167;-80
2021/11/15 01:29:16;;;;;;;44.53;18.37;;;5.80;99.90;;;;;;6160855;23;20191;-80
2021/11/15 01:31:41;;;;;;;48.70;19.53;;;5.80;99.90;;;;;;6161150;23;20220;-79
2021/11/15 01:34:07;;;;;;;49.03;18.27;;;5.80;99.90;;;;;;6161820;23;20159;-80
2021/11/15 01:36:34;;;;;;;50.57;19.87;;;5.80;99.90;;;;;;6187466;23;20603;-80
2021/11/15 01:39:00;;;;;;;45.97;20.37;;;5.90;99.90;;;;;;6162348;23;20205;-80
2021/11/15 01:41:26;;;;;;;44.07;18.90;;;5.80;99.90;;;;;;6188270;23;20861;-79
2021/11/15 01:43:51;;;;;;;46.90;19.90;;;5.80;99.90;;;;;;6162276;23;20576;-80
2021/11/15 01:46:18;;;;;;;47.83;20.03;;;5.70;99.90;;;;;;6161885;23;20163;-82
2021/11/15 01:48:44;;;;;;;48.13;20.77;;;5.70;99.90;;;;;;6188854;23;20182;-80
2021/11/15 01:51:09;;;;;;;45.93;19.87;;;5.70;99.90;;;;;;6163651;23;20159;-79
2021/11/15 01:53:35;;;;;;;42.50;19.03;;;5.70;99.90;;;;;;6162321;23;20194;-81
2021/11/15 01:56:01;;;;;;;45.83;19.33;;;5.60;99.90;;;;;;6188834;23;20162;-79
2021/11/15 01:58:26;;;;;;;43.97;19.33;;;5.60;99.90;;;;;;6162512;23;20226;-81
2021/11/15 02:00:56;;;;;;;43.30;18.97;;;5.70;99.90;;;;;;6188911;23;20292;-80
2021/11/15 02:03:23;;;;;;;40.63;18.03;;;5.60;99.90;;;;;;6163856;23;20699;-82
2021/11/15 02:05:50;;;;;;;39.63;17.13;;;5.60;99.90;;;;;;6162408;23;20603;-80
2021/11/15 02:08:16;;;;;;;44.77;19.77;;;5.60;99.90;;;;;;6162487;23;20190;-79
2021/11/15 02:10:42;;;;;;;44.87;19.13;;;5.50;99.90;;;;;;6162966;23;20270;-80
2021/11/15 02:13:09;;;;;;;44.27;18.77;;;5.50;99.90;;;;;;6162047;23;20163;-79
2021/11/15 02:15:35;;;;;;;42.17;18.60;;;5.50;99.90;;;;;;6154919;23;20163;-79
2021/11/15 02:18:02;;;;;;;40.63;18.93;;;5.40;99.90;;;;;;6155343;23;20159;-78
2021/11/15 02:20:52;;;;;;;39.67;18.47;;;5.40;99.90;;;;;;6156062;23;20178;-79
2021/11/15 02:23:19;;;;;;;37.33;18.37;;;5.40;99.90;;;;;;6155251;23;20159;-81
2021/11/15 02:25:46;;;;;;;36.90;17.87;;;5.40;99.90;;;;;;6154511;23;20159;-80
2021/11/15 02:28:12;;;;;;;36.83;18.03;;;5.30;99.90;;;;;;6179162;23;20214;-80
2021/11/15 02:30:39;;;;;;;40.40;18.37;;;5.30;99.90;;;;;;6183479;23;20537;-80
2021/11/15 02:33:05;;;;;;;34.17;17.87;;;5.30;99.90;;;;;;6189747;23;20151;-77
2021/11/15 02:35:31;;;;;;;36.33;17.73;;;5.30;99.90;;;;;;6189499;23;20158;-81
2021/11/15 02:37:57;;;;;;;41.33;19.50;;;5.30;99.90;;;;;;6189944;23;20155;-79
2021/11/15 02:40:25;;;;;;;35.80;17.63;;;5.40;99.90;;;;;;6163216;23;20183;-80
2021/11/15 02:42:52;;;;;;;36.07;17.60;;;5.30;99.90;;;;;;6188769;23;20177;-80
2021/11/15 02:45:20;;;;;;;32.13;16.33;;;5.30;99.90;;;;;;6162677;23;20245;-81
2021/11/15 02:47:47;;;;;;;31.77;16.03;;;5.30;99.90;;;;;;6162793;23;20244;-82
2021/11/15 02:50:17;;;;;;;31.60;15.93;;;5.30;99.90;;;;;;6189168;23;20171;-82
2021/11/15 02:52:48;;;;;;;31.07;16.40;;;5.20;99.90;;;;;;6162489;23;20151;-80
2021/11/15 02:55:14;;;;;;;30.97;15.53;;;5.20;99.90;;;;;;6190213;23;20151;-80
2021/11/15 02:57:41;;;;;;;30.00;15.73;;;5.20;99.90;;;;;;6189608;23;20155;-79
2021/11/15 03:00:21;;;;;;;27.53;14.53;;;5.20;99.90;;;;;;6189644;23;20175;-79
2021/11/15 03:02:48;;;;;;;28.47;15.13;;;5.30;99.90;;;;;;6163223;23;20742;-81
2021/11/15 03:05:14;;;;;;;28.67;14.37;;;5.30;99.90;;;;;;6190122;23;20162;-79
2021/11/15 03:07:47;;;;;;;27.07;13.57;;;5.20;99.90;;;;;;6189419;23;20182;-80
2021/11/15 03:10:13;;;;;;;25.43;14.13;;;5.20;99.90;;;;;;6162129;23;20705;-81
2021/11/15 03:12:39;;;;;;;23.10;13.70;;;5.20;99.90;;;;;;6189673;23;20157;-80
2021/11/15 03:15:05;;;;;;;26.13;13.57;;;5.20;99.90;;;;;;6162819;23;20686;-79
2021/11/15 03:17:31;;;;;;;27.33;13.93;;;5.20;99.90;;;;;;6163226;23;20245;-82
2021/11/15 03:19:56;;;;;;;24.17;13.23;;;5.20;99.90;;;;;;6189597;23;20630;-78
2021/11/15 03:22:22;;;;;;;29.20;14.23;;;5.20;99.90;;;;;;6162835;23;20677;-80
2021/11/15 03:24:47;;;;;;;24.20;13.27;;;5.20;99.90;;;;;;6162773;23;20190;-81
2021/11/15 03:27:13;;;;;;;26.93;14.80;;;5.30;99.90;;;;;;6190098;23;20159;-80
2021/11/15 03:29:39;;;;;;;24.50;12.97;;;5.20;99.90;;;;;;6162903;23;20179;-79
2021/11/15 03:32:06;;;;;;;25.83;12.90;;;5.20;99.90;;;;;;6191053;23;20150;-78
2021/11/15 03:34:32;;;;;;;23.77;11.93;;;5.30;99.90;;;;;;6163899;23;20489;-80
2021/11/15 03:36:57;;;;;;;27.03;13.40;;;5.20;99.90;;;;;;6164066;23;20166;-78
2021/11/15 03:39:23;;;;;;;24.13;13.23;;;5.20;99.90;;;;;;6163243;23;20539;-79
2021/11/15 03:41:49;;;;;;;28.43;13.97;;;5.20;99.90;;;;;;6191041;23;20151;-79
2021/11/15 03:44:16;;;;;;;27.63;14.00;;;5.20;99.90;;;;;;6163541;23;21138;-79
2021/11/15 03:46:42;;;;;;;24.23;13.50;;;5.20;99.90;;;;;;6163845;23;20183;-80
2021/11/15 03:49:08;;;;;;;25.43;13.90;;;5.10;99.90;;;;;;6198727;23;20178;-79
2021/11/15 03:51:34;;;;;;;23.00;12.23;;;5.20;99.90;;;;;;6167197;23;20642;-80
2021/11/15 03:54:00;;;;;;;24.53;12.90;;;5.20;99.90;;;;;;6188717;23;20217;-80
2021/11/15 03:56:27;;;;;;;22.47;12.77;;;5.20;99.90;;;;;;6188800;23;20159;-79
2021/11/15 03:58:55;;;;;;;24.87;13.07;;;5.20;99.90;;;;;;6162029;23;20190;-78
2021/11/15 04:01:24;;;;;;;22.73;11.77;;;5.20;99.90;;;;;;6161876;23;20515;-80
2021/11/15 04:03:53;;;;;;;26.97;13.17;;;5.20;99.90;;;;;;6188776;23;20162;-81
2021/11/15 04:06:27;;;;;;;25.90;12.83;;;5.20;99.90;;;;;;6188205;23;20178;-81
2021/11/15 04:08:57;;;;;;;24.00;12.43;;;5.10;99.90;;;;;;6162128;23;20195;-80
2021/11/15 04:11:25;;;;;;;23.57;13.33;;;5.20;99.90;;;;;;6162224;23;20151;-81
2021/11/15 04:13:55;;;;;;;24.00;12.70;;;5.20;99.90;;;;;;6162286;23;20155;-82
2021/11/15 04:16:21;;;;;;;22.97;13.23;;;5.20;99.90;;;;;;6163312;23;20233;-81
2021/11/15 04:18:54;;;;;;;23.80;13.30;;;5.20;99.90;;;;;;6189463;23;20174;-80
2021/11/15 04:21:20;;;;;;;24.47;13.23;;;5.20;99.90;;;;;;6163399;23;20151;-79
2021/11/15 04:23:47;;;;;;;26.73;13.60;;;5.10;99.90;;;;;;6163349;23;20162;-82
2021/11/15 04:26:13;;;;;;;23.57;12.37;;;5.20;99.90;;;;;;6190289;23;20158;-79
2021/11/15 04:28:38;;;;;;;22.73;12.30;;;5.20;99.90;;;;;;6164903;23;20277;-79
2021/11/15 04:31:04;;;;;;;24.80;12.93;;;5.30;99.90;;;;;;6189230;23;20151;-82
2021/11/15 04:33:30;;;;;;;25.40;12.60;;;5.20;99.90;;;;;;6189745;23;20159;-79
2021/11/15 04:35:56;;;;;;;26.63;12.83;;;5.20;99.90;;;;;;6163682;23;20305;-79
2021/11/15 04:38:22;;;;;;;23.50;13.03;;;5.20;99.90;;;;;;6162520;23;20225;-81
2021/11/15 04:40:47;;;;;;;23.17;13.40;;;5.20;99.90;;;;;;6161769;23;20756;-81
2021/11/15 04:43:13;;;;;;;25.13;12.20;;;5.20;99.90;;;;;;6186663;23;20155;-81
2021/11/15 04:45:39;;;;;;;25.03;11.90;;;5.20;99.90;;;;;;6162769;23;20159;-81
2021/11/15 04:48:05;;;;;;;22.03;12.40;;;5.20;99.90;;;;;;6162535;23;20201;-80
2021/11/15 04:50:32;;;;;;;22.47;11.53;;;5.20;99.90;;;;;;6162898;23;20178;-81
2021/11/15 04:52:59;;;;;;;24.43;12.73;;;5.20;99.90;;;;;;6163745;23;20180;-81
2021/11/15 04:55:25;;;;;;;23.33;11.90;;;5.20;99.90;;;;;;6163885;23;20201;-80
2021/11/15 04:57:53;;;;;;;22.13;12.00;;;5.20;99.90;;;;;;6162412;23;20609;-78
2021/11/15 05:00:24;;;;;;;20.57;11.07;;;5.30;99.90;;;;;;6163110;23;20189;-81
2021/11/15 05:02:50;;;;;;;20.93;11.33;;;5.30;99.90;;;;;;6189542;23;20166;-80
2021/11/15 05:05:18;;;;;;;23.57;11.63;;;5.30;99.90;;;;;;6162958;23;20155;-80
2021/11/15 05:07:45;;;;;;;20.63;11.13;;;5.20;99.90;;;;;;6161892;23;20193;-81
2021/11/15 05:10:12;;;;;;;22.53;11.53;;;5.30;99.90;;;;;;6160075;23;20194;-80
2021/11/15 05:12:38;;;;;;;17.73;11.43;;;5.20;99.90;;;;;;6187894;23;20182;-82
2021/11/15 05:15:11;;;;;;;17.93;10.97;;;5.30;99.90;;;;;;6160042;23;20218;-79
2021/11/15 05:17:37;;;;;;;19.80;11.00;;;5.30;99.90;;;;;;6163427;23;20461;-80
2021/11/15 05:20:05;;;;;;;20.63;11.57;;;5.30;99.90;;;;;;6165289;23;20187;-81
2021/11/15 05:22:30;;;;;;;23.20;11.60;;;5.30;99.90;;;;;;6189099;23;20190;-80
2021/11/15 05:24:56;;;;;;;21.53;11.50;;;5.30;99.90;;;;;;6163242;23;20163;-80
2021/11/15 05:27:22;;;;;;;19.90;11.00;;;5.30;99.90;;;;;;6163999;23;20170;-80
2021/11/15 05:29:47;;;;;;;23.07;11.33;;;5.40;99.90;;;;;;6164719;23;20178;-80
2021/11/15 05:32:13;;;;;;;24.50;12.23;;;5.40;99.90;;;;;;6191081;23;20151;-79
2021/11/15 05:34:38;;;;;;;21.30;11.77;;;5.30;99.90;;;;;;6191420;23;20157;-79
2021/11/15 05:37:05;;;;;;;22.03;11.43;;;5.30;99.90;;;;;;6192500;23;20151;-81
2021/11/15 05:39:30;;;;;;;19.87;10.97;;;5.30;99.90;;;;;;6164306;23;20194;-80
2021/11/15 05:41:57;;;;;;;25.97;12.20;;;5.30;99.90;;;;;;6191112;23;20159;-80
2021/11/15 05:44:24;;;;;;;25.57;13.13;;;5.30;99.90;;;;;;6164055;23;20162;-81
2021/11/15 05:46:50;;;;;;;29.97;13.30;;;5.30;99.90;;;;;;6190417;23;20151;-81
2021/11/15 05:49:16;;;;;;;24.80;12.60;;;5.20;99.90;;;;;;6163050;23;20575;-82
2021/11/15 05:51:41;;;;;;;28.17;13.47;;;5.30;99.90;;;;;;6161610;23;20159;-81
2021/11/15 05:54:07;;;;;;;30.20;13.57;;;5.20;99.90;;;;;;6161310;23;20240;-80
2021/11/15 05:56:33;;;;;;;28.60;14.57;;;5.20;99.90;;;;;;6187594;23;20209;-79
2021/11/15 05:58:59;;;;;;;26.03;14.40;;;5.10;99.90;;;;;;6186578;23;20255;-79
2021/11/15 06:01:24;;;;;;;27.40;13.17;;;5.20;99.90;;;;;;6160433;23;20167;-78
2021/11/15 06:03:50;;;;;;;26.80;13.10;;;5.20;99.90;;;;;;6159866;23;20179;-77
2021/11/15 06:06:15;;;;;;;25.37;13.57;;;5.30;99.90;;;;;;6186249;23;20942;-79
2021/11/15 06:08:41;;;;;;;32.87;14.47;;;5.40;99.90;;;;;;6187037;23;20662;-78
2021/11/15 06:11:07;;;;;;;26.20;13.37;;;5.30;99.90;;;;;;6184769;23;20150;-77
2021/11/15 06:13:32;;;;;;;26.77;13.10;;;5.30;99.90;;;;;;6184484;23;20151;-80
2021/11/15 06:15:58;;;;;;;27.37;13.73;;;5.30;99.90;;;;;;6183046;23;20147;-78
2021/11/15 06:18:24;;;;;;;28.57;14.87;;;5.30;99.90;;;;;;6155269;23;20634;-78
2021/11/15 06:20:50;;;;;;;32.53;14.27;;;5.30;99.90;;;;;;6152927;23;20194;-79
2021/11/15 06:23:15;;;;;;;26.90;14.03;;;5.30;99.90;;;;;;6153717;23;20170;-79
2021/11/15 06:25:41;;;;;;;28.87;15.03;;;5.30;99.90;;;;;;6162425;23;20163;-80
2021/11/15 06:28:07;;;;;;;26.63;13.70;;;5.20;99.90;;;;;;6190516;23;20282;-79
2021/11/15 06:30:33;;;;;;;29.63;14.13;;;5.20;99.90;;;;;;6164295;23;20185;-77
2021/11/15 06:32:58;;;;;;;28.67;14.60;;;5.20;99.90;;;;;;6186385;23;20155;-79
2021/11/15 06:35:27;;;;;;;31.97;14.57;;;5.20;99.90;;;;;;6160587;23;20155;-79
2021/11/15 06:37:53;;;;;;;28.50;14.40;;;5.20;99.90;;;;;;6162381;23;20817;-80
2021/11/15 06:40:19;;;;;;;24.43;12.63;;;5.20;99.90;;;;;;6163082;23;20716;-80
2021/11/15 06:42:45;;;;;;;26.23;14.00;;;5.30;99.90;;;;;;6163754;23;20162;-82
2021/11/15 06:45:11;;;;;;;29.03;13.97;;;5.20;99.90;;;;;;6190144;23;20233;-81
2021/11/15 06:47:38;;;;;;;24.07;13.33;;;5.30;99.90;;;;;;6163036;23;20169;-81
2021/11/15 06:50:05;;;;;;;26.47;13.40;;;5.30;99.90;;;;;;6190186;23;20177;-78
2021/11/15 06:52:31;;;;;;;24.73;12.40;;;5.30;99.90;;;;;;6163240;23;20159;-81
2021/11/15 06:54:57;;;;;;;24.73;13.40;;;5.30;99.90;;;;;;6191009;23;20206;-79
2021/11/15 06:57:26;;;;;;;24.60;13.97;;;5.30;99.90;;;;;;6163649;23;20155;-79
2021/11/15 06:59:52;;;;;;;24.63;13.77;;;5.30;99.90;;;;;;6162908;23;20514;-80
2021/11/15 07:02:17;;;;;;;25.53;12.37;;;5.40;99.90;;;;;;6155865;23;20194;-79
2021/11/15 07:04:43;;;;;;;24.23;13.03;;;5.30;99.90;;;;;;6160074;23;20183;-82
2021/11/15 07:07:09;;;;;;;25.70;13.43;;;5.20;99.90;;;;;;6189880;23;20214;-81
2021/11/15 07:09:35;;;;;;;22.07;11.80;;;5.30;99.90;;;;;;6187942;23;20186;-82
2021/11/15 07:12:00;;;;;;;22.87;11.97;;;5.30;99.90;;;;;;6162609;23;20159;-81
2021/11/15 07:14:26;;;;;;;22.83;12.60;;;5.40;99.90;;;;;;6188876;23;20537;-80
2021/11/15 07:16:52;;;;;;;25.03;12.80;;;5.40;99.90;;;;;;6162343;23;20170;-78
2021/11/15 07:19:17;;;;;;;26.63;13.50;;;5.30;99.90;;;;;;6189070;23;20175;-79
2021/11/15 07:21:43;;;;;;;22.13;13.43;;;5.30;99.90;;;;;;6162315;23;20187;-79
2021/11/15 07:24:09;;;;;;;19.27;10.83;;;5.30;99.90;;;;;;6162566;23;20167;-79
2021/11/15 07:26:34;;;;;;;24.60;12.13;;;5.30;99.90;;;;;;6190062;23;20213;-81
2021/11/15 07:29:00;;;;;;;21.97;11.80;;;5.40;99.90;;;;;;6166273;23;20195;-80
2021/11/15 07:31:25;;;;;;;22.27;11.93;;;5.40;99.90;;;;;;6189233;23;20147;-79
2021/11/15 07:33:51;;;;;;;23.53;11.77;;;5.40;99.90;;;;;;6162207;23;20485;-79
2021/11/15 07:36:17;;;;;;;24.10;11.57;;;5.40;99.90;;;;;;6189428;23;20187;-79
2021/11/15 07:38:43;;;;;;;24.47;12.83;;;5.50;99.90;;;;;;6186933;23;20155;-82
2021/11/15 07:41:08;;;;;;;22.43;12.53;;;5.50;99.90;;;;;;6188290;23;20181;-81
2021/11/15 07:43:34;;;;;;;23.77;13.27;;;5.40;99.90;;;;;;6161890;23;20694;-79
2021/11/15 07:46:00;;;;;;;22.10;12.97;;;5.50;99.90;;;;;;6162502;23;20663;-79
2021/11/15 07:48:26;;;;;;;22.33;12.40;;;5.50;99.90;;;;;;6162068;23;20237;-82
2021/11/15 07:50:52;;;;;;;26.27;15.27;;;5.50;99.90;;;;;;6191033;23;20215;-81
2021/11/15 07:53:18;;;;;;;29.07;12.30;;;5.60;99.90;;;;;;6159109;23;20163;-81
2021/11/15 07:55:43;;;;;;;21.13;11.77;;;5.50;99.90;;;;;;6181193;23;20151;-80
2021/11/15 07:58:11;;;;;;;23.60;15.37;;;5.60;99.90;;;;;;6150891;23;20174;-80
2021/11/15 08:00:38;;;;;;;23.67;12.53;;;5.60;99.90;;;;;;6178477;23;20175;-80
2021/11/15 08:03:05;;;;;;;21.90;12.90;;;5.60;99.90;;;;;;6155916;23;20217;-79
2021/11/15 08:05:31;;;;;;;24.53;14.20;;;5.60;99.90;;;;;;6181863;23;20657;-81
2021/11/15 08:07:56;;;;;;;21.03;12.43;;;5.60;99.90;;;;;;6154889;23;20265;-82
2021/11/15 08:10:23;;;;;;;26.27;16.93;;;5.70;99.90;;;;;;6179439;23;20220;-79
2021/11/15 08:12:53;;;;;;;23.33;13.03;;;5.70;99.90;;;;;;6181325;23;20157;-81
2021/11/15 08:15:20;;;;;;;23.37;12.17;;;5.70;99.90;;;;;;6154444;23;20163;-80
2021/11/15 08:17:49;;;;;;;18.33;11.23;;;5.70;99.90;;;;;;6155072;23;20183;-81
2021/11/15 08:20:18;;;;;;;22.70;11.40;;;5.70;99.90;;;;;;6156552;23;20182;-83
2021/11/15 08:22:47;;;;;;;17.63;11.63;;;5.80;99.90;;;;;;6180951;23;20155;-82
2021/11/15 08:25:51;;;;;;;20.27;11.27;;;5.70;99.90;;;;;;6181374;23;20154;-81
2021/11/15 08:28:17;;;;;;;20.30;11.27;;;5.80;99.90;;;;;;6154774;23;20232;-81
2021/11/15 08:30:43;;;;;;;20.73;12.03;;;5.80;99.90;;;;;;6153823;23;20533;-80
2021/11/15 08:33:09;;;;;;;21.00;11.93;;;5.80;99.90;;;;;;6154013;23;20159;-80
2021/11/15 08:35:36;;;;;;;20.43;12.47;;;5.80;99.90;;;;;;6154750;23;20159;-81
2021/11/15 08:38:10;;;;;;;24.03;13.03;;;5.90;99.90;;;;;;6180653;23;20212;-80
2021/11/15 08:40:36;;;;;;;20.53;12.07;;;5.90;99.90;;;;;;6182727;23;20174;-79
2021/11/15 08:43:01;;;;;;;23.47;11.07;;;5.90;99.90;;;;;;6156256;23;20198;-79
2021/11/15 08:45:27;;;;;;;21.27;11.60;;;5.90;99.90;;;;;;6157994;23;20167;-78
2021/11/15 08:47:53;;;;;;;23.97;13.53;;;5.90;99.90;;;;;;6185995;23;20241;-78
2021/11/15 08:50:18;;;;;;;25.53;14.03;;;6.00;99.90;;;;;;6158391;23;20775;-80
2021/11/15 08:52:44;;;;;;;24.03;13.03;;;6.00;99.90;;;;;;6185359;23;20178;-79
2021/11/15 08:55:09;;;;;;;28.27;17.30;;;6.00;99.90;;;;;;6157649;23;20647;-79
2021/11/15 08:57:35;;;;;;;21.90;13.23;;;6.00;99.90;;;;;;6183075;23;20155;-81
2021/11/15 09:00:00;;;;;;;28.60;16.90;;;6.10;99.90;;;;;;6155658;23;20457;-81
2021/11/15 09:02:26;;;;;;;26.93;18.90;;;6.00;99.90;;;;;;6153529;23;20158;-79
2021/11/15 09:04:52;;;;;;;25.13;13.53;;;6.10;99.90;;;;;;6148674;23;20603;-78
2021/11/15 09:07:17;;;;;;;19.90;13.20;;;6.00;99.90;;;;;;6152831;23;20143;-80
2021/11/15 09:09:43;;;;;;;23.63;14.43;;;6.10;99.90;;;;;;6151881;23;20664;-78
2021/11/15 09:12:09;;;;;;;23.10;13.67;;;6.10;99.90;;;;;;6179034;23;20277;-79
2021/11/15 09:14:37;;;;;;;22.27;11.57;;;6.10;99.90;;;;;;6153186;23;20607;-79
2021/11/15 09:17:04;;;;;;;21.30;11.97;;;6.10;99.90;;;;;;6181994;23;20159;-78
2021/11/15 09:19:30;;;;;;;24.43;12.93;;;6.10;99.90;;;;;;6154721;23;20714;-79
2021/11/15 09:21:56;;;;;;;22.57;12.83;;;6.20;99.90;;;;;;6155750;23;20163;-79
2021/11/15 09:24:23;;;;;;;24.27;12.60;;;6.20;99.90;;;;;;6150512;23;20163;-81
2021/11/15 09:26:49;;;;;;;28.53;14.90;;;6.10;99.90;;;;;;6154959;23;20166;-80
2021/11/15 09:29:17;;;;;;;31.10;14.97;;;6.20;99.90;;;;;;6154825;23;20531;-80
2021/11/15 09:31:43;;;;;;;25.17;15.43;;;6.20;99.90;;;;;;6181680;23;20151;-80
2021/11/15 09:34:10;;;;;;;27.17;14.93;;;6.20;99.90;;;;;;6156106;23;20170;-78
2021/11/15 09:36:37;;;;;;;24.33;13.73;;;6.20;99.90;;;;;;6182503;23;20696;-81
2021/11/15 09:39:05;;;;;;;27.73;15.60;;;6.20;99.90;;;;;;6154930;23;20529;-79
2021/11/15 09:41:31;;;;;;;28.23;15.23;;;6.20;99.90;;;;;;6156174;23;20151;-81
2021/11/15 09:43:57;;;;;;;27.97;14.83;;;6.20;99.90;;;;;;6181847;23;20494;-80
2021/11/15 09:46:27;;;;;;;26.13;14.50;;;6.20;99.90;;;;;;6183449;23;20186;-81
2021/11/15 09:49:03;;;;;;;29.00;14.40;;;6.20;99.90;;;;;;6181762;23;20654;-78
2021/11/15 09:51:30;;;;;;;25.17;13.83;;;6.20;99.90;;;;;;6154382;23;20150;-81
2021/11/15 09:53:57;;;;;;;27.90;14.70;;;6.20;99.90;;;;;;6180272;23;20151;-79
2021/11/15 09:56:23;;;;;;;27.50;14.13;;;6.10;99.90;;;;;;6153703;23;20620;-79
2021/11/15 09:58:50;;;;;;;24.73;12.97;;;6.10;99.90;;;;;;6180853;23;20175;-79
2021/11/15 10:01:16;;;;;;;24.23;12.63;;;6.10;99.90;;;;;;6152957;23;20220;-79
2021/11/15 10:03:41;;;;;;;23.93;13.27;;;6.10;99.90;;;;;;6153603;23;20781;-79
2021/11/15 10:06:07;;;;;;;26.57;14.67;;;6.00;99.90;;;;;;6151688;23;20167;-79
2021/11/15 10:08:47;;;;;;;25.60;14.17;;;6.00;99.90;;;;;;6177105;23;20186;-80
2021/11/15 10:11:13;;;;;;;28.77;14.83;;;6.00;99.90;;;;;;6176656;23;20161;-81
2021/11/15 10:13:40;;;;;;;28.93;16.63;;;6.00;99.90;;;;;;6147242;23;20163;-80
2021/11/15 10:16:19;;;;;;;33.70;17.20;;;5.80;99.90;;;;;;6149292;23;20201;-81
2021/11/15 10:19:02;;;;;;;30.47;16.63;;;5.80;99.90;;;;;;6157535;23;20754;-80
2021/11/15 10:21:28;;;;;;;30.53;16.47;;;5.80;99.90;;;;;;6157784;23;20646;-82
2021/11/15 10:24:06;;;;;;;31.30;16.60;;;5.70;99.90;;;;;;6184291;23;20380;-80
2021/11/15 10:26:44;;;;;;;34.37;17.20;;;5.70;99.90;;;;;;6185033;23;20154;-81
2021/11/15 10:29:22;;;;;;;37.17;17.63;;;5.70;99.90;;;;;;6156392;23;20650;-79
2021/11/15 10:31:49;;;;;;;29.13;16.13;;;5.80;99.90;;;;;;6184287;23;20142;-80
2021/11/15 10:34:37;;;;;;;30.57;16.50;;;5.80;99.90;;;;;;6184727;23;20148;-79
2021/11/15 10:37:14;;;;;;;32.80;17.37;;;5.70;99.90;;;;;;6184660;23;20298;-81
2021/11/15 10:39:50;;;;;;;34.40;17.27;;;5.70;99.90;;;;;;6158957;23;20194;-80
2021/11/15 10:42:27;;;;;;;28.70;15.57;;;5.70;99.90;;;;;;6159854;23;20217;-80
2021/11/15 10:45:06;;;;;;;31.03;16.50;;;5.70;99.90;;;;;;6160144;23;20154;-81
2021/11/15 10:47:37;;;;;;;30.63;16.77;;;5.60;99.90;;;;;;6160387;23;20195;-80
2021/11/15 10:50:11;;;;;;;31.00;16.03;;;5.60;99.90;;;;;;6159201;23;20186;-79
2021/11/15 10:52:40;;;;;;;33.73;17.00;;;5.60;99.90;;;;;;6186248;23;20128;-81
2021/11/15 10:55:07;;;;;;;30.13;16.87;;;5.70;99.90;;;;;;6186190;23;20147;-80
2021/11/15 10:57:39;;;;;;;34.63;17.10;;;5.70;99.90;;;;;;6186343;23;20155;-80
2021/11/15 11:00:05;;;;;;;34.53;17.77;;;5.70;99.90;;;;;;6186071;23;20710;-79
2021/11/15 11:02:42;;;;;;;36.37;18.40;;;5.70;99.90;;;;;;6158968;23;20159;-81
2021/11/15 11:05:24;;;;;;;32.73;17.83;;;5.70;99.90;;;;;;6159372;23;20154;-82
2021/11/15 11:08:18;;;;;;;36.63;18.03;;;5.70;99.90;;;;;;6185242;23;20187;-81
2021/11/15 11:10:52;;;;;;;33.60;18.17;;;5.60;99.90;;;;;;6093701;23;20657;-80
2021/11/15 11:13:20;;;;;;;30.80;16.60;;;5.70;99.90;;;;;;6158771;23;20159;-79
2021/11/15 11:15:49;;;;;;;28.00;15.67;;;5.70;99.90;;;;;;6185600;23;20281;-81
2021/11/15 11:18:23;;;;;;;26.50;14.03;;;5.70;99.90;;;;;;6185120;23;20183;-78
2021/11/15 11:25:55;;;;;;;26.73;13.70;;;5.90;99.90;;;;;;6197445;23;20489;-79
2021/11/15 11:28:36;;;;;;;28.53;15.00;;;5.90;99.90;;;;;;6161128;23;20209;-80
2021/11/15 11:31:04;;;;;;;22.93;11.97;;;5.90;99.90;;;;;;6161111;23;20143;-81
2021/11/15 11:33:31;;;;;;;23.00;12.57;;;5.90;99.90;;;;;;6161013;23;20217;-81
2021/11/15 11:36:02;;;;;;;20.60;11.40;;;6.00;99.90;;;;;;6189188;23;20155;-79
2021/11/15 11:38:28;;;;;;;22.60;12.60;;;6.00;99.90;;;;;;6160024;23;20185;-80
2021/11/15 11:40:54;;;;;;;24.20;13.40;;;6.00;99.90;;;;;;6187488;23;20159;-80
2021/11/15 11:43:21;;;;;;;23.80;13.10;;;6.00;99.90;;;;;;6159408;23;20170;-81
2021/11/15 11:45:47;;;;;;;22.03;12.63;;;6.00;99.90;;;;;;6158206;23;20332;-80
2021/11/15 11:48:14;;;;;;;22.23;11.93;;;6.10;99.90;;;;;;6158148;23;20190;-81
2021/11/15 11:50:46;;;;;;;20.13;12.90;;;6.00;99.90;;;;;;6182347;23;20520;-79
2021/11/15 11:53:18;;;;;;;21.73;12.63;;;6.10;99.90;;;;;;6154229;23;20151;-79
2021/11/15 11:55:45;;;;;;;22.20;12.10;;;6.10;99.90;;;;;;6155560;23;20580;-79
2021/11/15 11:58:23;;;;;;;24.80;12.20;;;6.30;99.90;;;;;;6154317;23;20159;-78
2021/11/15 12:00:51;;;;;;;20.83;11.77;;;6.20;99.90;;;;;;6152502;23;20629;-81
2021/11/15 12:03:17;;;;;;;21.40;11.63;;;6.30;99.90;;;;;;6182161;23;20169;-80
2021/11/15 12:05:43;;;;;;;18.80;11.37;;;6.20;99.90;;;;;;6182931;23;20163;-80
2021/11/15 12:08:09;;;;;;;19.07;10.73;;;6.20;99.90;;;;;;6154519;23;20665;-79
2021/11/15 12:10:44;;;;;;;19.10;11.20;;;6.30;99.90;;;;;;6155542;23;20201;-79
2021/11/15 12:13:15;;;;;;;20.30;12.00;;;6.20;99.90;;;;;;6155629;23;20154;-78
2021/11/15 12:15:44;;;;;;;20.53;11.97;;;6.20;99.90;;;;;;6181181;23;20147;-81
2021/11/15 12:18:11;;;;;;;17.50;11.40;;;6.20;99.90;;;;;;6153108;23;20163;-79
2021/11/15 12:20:59;;;;;;;21.97;11.57;;;6.30;99.90;;;;;;6181410;23;20179;-81
2021/11/15 12:23:25;;;;;;;19.50;11.77;;;6.30;99.90;;;;;;6175490;23;20155;-82
2021/11/15 12:26:08;;;;;;;22.43;12.87;;;6.40;99.90;;;;;;6155319;23;20234;-82
2021/11/15 12:28:35;;;;;;;19.37;11.20;;;6.30;99.90;;;;;;6155676;23;20206;-83
2021/11/15 12:31:02;;;;;;;21.10;11.30;;;6.30;99.90;;;;;;6152467;23;20159;-80
2021/11/15 12:33:32;;;;;;;21.43;12.50;;;6.40;99.90;;;;;;6181390;23;20151;-80
2021/11/15 12:36:09;;;;;;;17.70;10.97;;;6.40;99.90;;;;;;6153368;23;20206;-80
2021/11/15 12:38:54;;;;;;;21.10;11.83;;;6.40;99.90;;;;;;6179462;23;20521;-79
2021/11/15 12:41:22;;;;;;;20.50;11.03;;;6.40;99.90;;;;;;6179820;23;20146;-80
2021/11/15 12:44:03;;;;;;;21.00;12.43;;;6.40;99.90;;;;;;6152277;23;20163;-80
2021/11/15 12:46:53;;;;;;;20.23;11.57;;;6.30;99.90;;;;;;6152669;23;20159;-78